Hudson, Kentucky
Current Conditions -  °F | °C
As of 10:58 PM on Friday 28 Nov 2014 (Local Time) from KFTK Reporting Station
Scattered Clouds Scattered Clouds  
Wind Chill: 30°   Ceiling: Unl
Heat Index: 35°   Visibility: 10mi
Dew Point: 23°   Wind: 6mph
Humidity: 60%   Direction: 170°S
Pressure: 30.05"   Gusts: NA
Location:  37.65°N, 86.28°W
Report Text: KFTK 290458Z AUTO 17005KT 10SM SCT180 02/M05 A3005 RMK AO2 SLP185 T00181052 400391077
Loading
Personal Weather Stations






























Interactive Weather Map New forecast layout! Learn more

10-Day Weather Forecast

Advertisements
Track Severe Weather on mobile